Time;durP1;ratioP1;P1;durP2;ratioP2;P2;SDS_P1;SDS_P2;PMS_P1;PMS_P2;Temp;Humidity;BMP_temperature;BMP_pressure;BME280_temperature;BME280_humidity;BME280_pressure;Samples;Min_cycle;Max_cycle;Signal;HPM_P1;HPM_P2
2023/10/06 00:02:55;;;;;;;13.55;5.03;;;14.70;99.90;;;;;;5034839;28;20068;-76
2023/10/06 00:05:21;;;;;;;13.95;4.90;;;14.70;99.90;;;;;;5034654;28;20037;-76
2023/10/06 00:07:47;;;;;;;17.23;5.20;;;14.70;99.90;;;;;;5034483;28;20127;-77
2023/10/06 00:10:20;;;;;;;15.70;5.00;;;14.60;99.90;;;;;;5035826;28;20037;-76
2023/10/06 00:12:47;;;;;;;14.38;5.45;;;14.60;99.90;;;;;;5034436;28;20049;-77
2023/10/06 00:15:26;;;;;;;14.52;4.45;;;14.60;99.90;;;;;;5034444;28;20405;-76
2023/10/06 00:18:07;;;;;;;21.50;5.18;;;14.60;99.90;;;;;;5034429;28;20054;-76
2023/10/06 00:20:39;;;;;;;14.63;4.65;;;14.60;99.90;;;;;;5034266;28;20053;-77
2023/10/06 00:23:14;;;;;;;15.98;5.30;;;14.60;99.90;;;;;;5035598;28;20045;-76
2023/10/06 00:25:44;;;;;;;14.13;4.47;;;14.60;99.90;;;;;;5034265;28;20440;-76
2023/10/06 00:28:20;;;;;;;15.90;4.68;;;14.60;99.90;;;;;;5035214;28;20045;-77
2023/10/06 00:30:56;;;;;;;11.73;4.18;;;14.70;99.90;;;;;;5034055;28;20049;-77
2023/10/06 00:33:37;;;;;;;14.30;4.65;;;14.70;99.90;;;;;;5035458;28;20126;-77
2023/10/06 00:36:14;;;;;;;14.85;4.22;;;14.70;99.90;;;;;;5033646;28;20049;-76
2023/10/06 00:38:45;;;;;;;13.88;4.50;;;14.70;99.90;;;;;;5034079;28;20080;-76
2023/10/06 00:41:14;;;;;;;15.05;4.72;;;14.70;99.90;;;;;;5034166;28;20050;-76
2023/10/06 00:43:46;;;;;;;16.30;4.75;;;14.70;99.90;;;;;;5034126;28;20060;-76
2023/10/06 00:46:20;;;;;;;15.88;4.63;;;14.80;99.90;;;;;;5033914;28;20053;-76
2023/10/06 00:48:56;;;;;;;17.65;4.60;;;14.70;99.90;;;;;;5035229;28;20599;-76
2023/10/06 00:51:25;;;;;;;14.27;4.53;;;14.70;99.90;;;;;;5033838;28;20056;-76
2023/10/06 00:53:52;;;;;;;14.10;4.45;;;14.80;99.90;;;;;;5033869;28;20168;-76
2023/10/06 00:56:25;;;;;;;16.58;4.63;;;14.70;99.90;;;;;;5034984;28;20053;-77
2023/10/06 00:58:52;;;;;;;16.25;4.93;;;14.80;99.90;;;;;;5033600;28;20128;-76
2023/10/06 01:01:18;;;;;;;14.82;4.97;;;14.70;99.90;;;;;;5033582;28;20053;-76
2023/10/06 01:03:48;;;;;;;13.55;4.55;;;14.80;99.90;;;;;;5033479;28;20046;-76
2023/10/06 01:06:15;;;;;;;14.35;4.85;;;14.70;99.90;;;;;;5035413;28;20045;-76
2023/10/06 01:08:52;;;;;;;15.10;4.82;;;14.70;99.90;;;;;;5033554;28;20045;-76
2023/10/06 01:11:20;;;;;;;18.67;5.15;;;14.80;99.90;;;;;;5034623;28;20053;-76
2023/10/06 01:13:56;;;;;;;22.38;5.22;;;14.80;99.90;;;;;;5033620;28;20056;-76
2023/10/06 01:16:24;;;;;;;20.80;5.30;;;14.70;99.90;;;;;;5034627;28;20045;-77
2023/10/06 01:19:00;;;;;;;16.48;5.38;;;14.80;99.90;;;;;;5033438;28;20046;-76
2023/10/06 01:21:28;;;;;;;18.55;5.40;;;14.70;99.90;;;;;;5033140;28;20095;-76
2023/10/06 01:23:58;;;;;;;20.30;5.38;;;14.70;99.90;;;;;;5034629;28;20067;-76
2023/10/06 01:26:24;;;;;;;14.70;5.55;;;14.70;99.90;;;;;;5033184;28;20033;-76
2023/10/06 01:28:51;;;;;;;18.67;5.65;;;14.70;99.90;;;;;;5033061;28;20053;-76
2023/10/06 01:31:20;;;;;;;16.92;6.07;;;14.70;99.90;;;;;;5033074;28;20053;-76
2023/10/06 01:33:45;;;;;;;19.80;6.13;;;14.70;99.90;;;;;;5034227;28;20068;-76
2023/10/06 01:36:15;;;;;;;11.02;5.45;;;14.70;99.90;;;;;;5032881;28;20481;-76
2023/10/06 01:38:45;;;;;;;14.40;5.10;;;14.70;99.90;;;;;;5032947;28;20128;-76
2023/10/06 01:41:11;;;;;;;18.42;6.15;;;14.70;99.90;;;;;;5032817;28;20049;-76
2023/10/06 01:43:38;;;;;;;15.45;5.47;;;14.80;99.90;;;;;;5032915;28;20055;-76
2023/10/06 01:46:07;;;;;;;18.08;5.28;;;14.80;99.90;;;;;;5032919;28;20048;-76
2023/10/06 01:48:33;;;;;;;17.67;5.18;;;14.80;99.90;;;;;;5031596;28;20567;-76
2023/10/06 01:50:59;;;;;;;15.93;5.50;;;14.80;99.90;;;;;;5032982;28;20045;-76
2023/10/06 01:53:32;;;;;;;18.75;5.75;;;14.80;99.90;;;;;;5033737;28;20041;-77
2023/10/06 01:56:01;;;;;;;17.13;5.05;;;14.80;99.90;;;;;;5032970;28;20114;-77
2023/10/06 01:58:27;;;;;;;17.13;5.63;;;14.70;99.90;;;;;;5033035;28;20041;-76
2023/10/06 02:00:52;;;;;;;17.02;5.63;;;14.80;99.90;;;;;;5032509;28;20060;-76
2023/10/06 02:03:21;;;;;;;22.20;6.03;;;14.80;99.90;;;;;;5032530;28;20049;-76
2023/10/06 02:05:47;;;;;;;14.25;5.85;;;14.70;99.90;;;;;;5032497;28;20057;-77
2023/10/06 02:08:21;;;;;;;22.10;5.95;;;14.80;99.90;;;;;;5033738;28;20045;-76
2023/10/06 02:10:47;;;;;;;14.68;5.18;;;14.80;99.90;;;;;;5033781;28;20158;-77
2023/10/06 02:13:21;;;;;;;16.85;5.78;;;14.80;99.90;;;;;;5032229;28;20497;-76
2023/10/06 02:15:56;;;;;;;21.20;5.13;;;14.80;99.90;;;;;;5032376;28;20049;-77
2023/10/06 02:18:22;;;;;;;18.35;5.90;;;14.80;99.90;;;;;;5032439;28;20091;-77
2023/10/06 02:20:49;;;;;;;14.77;5.25;;;14.80;99.90;;;;;;5032307;28;20393;-76
2023/10/06 02:23:14;;;;;;;20.02;5.65;;;14.80;99.90;;;;;;5032195;28;20049;-77
2023/10/06 02:25:40;;;;;;;15.38;4.90;;;14.80;99.90;;;;;;5032454;28;20053;-77
2023/10/06 02:28:08;;;;;;;17.63;5.60;;;14.80;99.90;;;;;;5033380;28;20110;-76
2023/10/06 02:30:33;;;;;;;13.70;5.05;;;14.80;99.90;;;;;;5033436;28;20042;-77
2023/10/06 02:33:06;;;;;;;15.73;5.18;;;14.80;99.90;;;;;;5032241;28;20050;-76
2023/10/06 02:35:34;;;;;;;17.38;6.15;;;14.70;99.90;;;;;;5032517;28;20395;-76
2023/10/06 02:38:05;;;;;;;17.77;5.13;;;14.70;99.90;;;;;;5033219;28;20497;-76
2023/10/06 02:40:45;;;;;;;14.05;4.30;;;14.80;99.90;;;;;;5031837;28;20054;-76
2023/10/06 02:43:17;;;;;;;16.33;5.97;;;14.70;99.90;;;;;;5032153;28;20057;-76
2023/10/06 02:45:43;;;;;;;17.67;5.20;;;14.70;99.90;;;;;;5032078;28;20069;-76
2023/10/06 02:48:15;;;;;;;19.00;5.32;;;14.70;99.90;;;;;;5033181;28;20107;-76
2023/10/06 02:50:45;;;;;;;23.77;5.68;;;14.70;99.90;;;;;;5032277;28;20046;-77
2023/10/06 02:53:13;;;;;;;16.52;4.40;;;14.80;99.90;;;;;;5031922;28;20057;-76
2023/10/06 02:55:43;;;;;;;14.07;4.68;;;14.70;99.90;;;;;;5032132;28;20110;-76
2023/10/06 02:58:15;;;;;;;18.23;5.10;;;14.70;99.90;;;;;;5033295;28;20052;-76
2023/10/06 03:00:50;;;;;;;10.18;4.13;;;14.70;99.90;;;;;;5035825;28;20171;-76
2023/10/06 03:03:18;;;;;;;11.15;4.07;;;14.80;99.90;;;;;;5042159;28;20051;-76
2023/10/06 03:05:49;;;;;;;18.60;4.53;;;14.70;99.90;;;;;;5055725;28;20057;-76
2023/10/06 03:08:20;;;;;;;14.00;4.55;;;14.70;99.90;;;;;;5055824;28;20403;-75
2023/10/06 03:10:48;;;;;;;15.40;5.47;;;14.70;99.90;;;;;;5055864;28;20044;-77
2023/10/06 03:13:33;;;;;;;20.23;4.82;;;14.70;99.90;;;;;;5055351;28;20053;-77
2023/10/06 03:15:59;;;;;;;16.00;5.18;;;14.70;99.90;;;;;;5055738;28;20048;-76
2023/10/06 03:18:26;;;;;;;13.90;4.13;;;14.60;99.90;;;;;;5055633;28;20182;-76
2023/10/06 03:21:04;;;;;;;15.80;4.85;;;14.60;99.90;;;;;;5055292;28;20094;-77
2023/10/06 03:23:32;;;;;;;14.82;4.13;;;14.60;99.90;;;;;;5055197;28;20044;-77
2023/10/06 03:25:58;;;;;;;18.90;5.05;;;14.60;99.90;;;;;;5055206;28;20047;-76
2023/10/06 03:28:31;;;;;;;15.18;4.50;;;14.60;99.90;;;;;;5055215;28;20049;-76
2023/10/06 03:31:02;;;;;;;16.33;4.97;;;14.60;99.90;;;;;;5055138;28;20496;-76
2023/10/06 03:33:29;;;;;;;13.18;5.57;;;14.60;99.90;;;;;;5055222;28;20041;-76
2023/10/06 03:35:57;;;;;;;19.45;4.90;;;14.60;99.90;;;;;;5056396;28;20049;-75
2023/10/06 03:46:03;;;;;;;17.45;4.75;;;14.60;99.90;;;;;;5054874;28;20055;-76
2023/10/06 03:48:32;;;;;;;15.30;4.82;;;14.60;99.90;;;;;;5054770;28;20045;-76
2023/10/06 03:50:58;;;;;;;15.60;4.88;;;14.60;99.90;;;;;;5056153;28;20037;-76
2023/10/06 03:53:24;;;;;;;17.55;4.85;;;14.60;99.90;;;;;;5054612;28;20059;-76
2023/10/06 03:55:50;;;;;;;19.88;5.13;;;14.60;99.90;;;;;;5056006;28;20123;-76
2023/10/06 03:58:18;;;;;;;17.05;5.80;;;14.60;99.90;;;;;;5055862;28;20033;-76
2023/10/06 04:00:47;;;;;;;19.40;5.72;;;14.60;99.90;;;;;;5054570;28;20053;-75
2023/10/06 04:03:15;;;;;;;23.40;8.00;;;14.50;99.90;;;;;;5055205;28;20131;-76
2023/10/06 04:05:48;;;;;;;16.10;6.53;;;14.50;99.90;;;;;;5054513;28;20049;-76
2023/10/06 04:08:20;;;;;;;21.42;7.15;;;14.50;99.90;;;;;;5054520;28;20049;-76
2023/10/06 04:10:53;;;;;;;20.23;5.95;;;14.50;99.90;;;;;;5053523;28;20048;-76
2023/10/06 04:13:20;;;;;;;17.17;6.80;;;14.50;99.90;;;;;;5054049;28;20071;-75
2023/10/06 04:15:49;;;;;;;22.63;6.60;;;14.50;99.90;;;;;;5054487;28;20044;-76
2023/10/06 04:18:24;;;;;;;24.13;7.40;;;14.50;99.90;;;;;;5054299;28;20060;-77
2023/10/06 04:20:55;;;;;;;24.75;8.40;;;14.40;99.90;;;;;;5054530;28;20067;-77
2023/10/06 04:23:24;;;;;;;22.85;8.32;;;14.40;99.90;;;;;;5054325;28;20120;-76
2023/10/06 04:25:54;;;;;;;25.27;8.30;;;14.40;99.90;;;;;;5054180;28;20473;-76
2023/10/06 04:28:22;;;;;;;24.75;8.85;;;14.30;99.90;;;;;;5054330;28;20061;-77
2023/10/06 04:30:49;;;;;;;25.63;9.90;;;14.40;99.90;;;;;;5054248;28;20048;-77
2023/10/06 04:33:15;;;;;;;33.15;9.75;;;14.30;99.90;;;;;;5053857;28;20060;-77
2023/10/06 04:35:47;;;;;;;27.27;9.20;;;14.40;99.90;;;;;;5054035;28;20048;-76
2023/10/06 04:38:13;;;;;;;25.85;9.65;;;14.40;99.90;;;;;;5054070;28;20053;-76
2023/10/06 04:40:41;;;;;;;25.83;10.05;;;14.30;99.90;;;;;;5053695;28;20049;-76
2023/10/06 04:43:07;;;;;;;25.65;9.32;;;14.30;99.90;;;;;;5053737;28;20049;-76
2023/10/06 04:45:33;;;;;;;26.65;9.95;;;14.30;99.90;;;;;;5053837;28;20049;-77
2023/10/06 04:48:00;;;;;;;25.23;10.43;;;14.40;99.90;;;;;;5054930;28;20134;-77
2023/10/06 04:50:29;;;;;;;26.88;11.32;;;14.30;99.90;;;;;;5054908;28;20037;-76
2023/10/06 04:52:55;;;;;;;29.50;10.77;;;14.40;99.90;;;;;;5054587;28;20151;-76
2023/10/06 04:55:22;;;;;;;28.05;11.75;;;14.30;99.90;;;;;;5054964;28;20045;-76
2023/10/06 04:57:47;;;;;;;25.63;10.40;;;14.40;99.90;;;;;;5053763;28;20044;-77
2023/10/06 05:00:20;;;;;;;27.02;10.30;;;14.30;99.90;;;;;;5054653;28;20045;-76
2023/10/06 05:02:47;;;;;;;27.85;10.93;;;14.40;99.90;;;;;;5053546;28;20045;-76
2023/10/06 05:05:23;;;;;;;30.73;10.40;;;14.40;99.90;;;;;;5053732;28;20121;-76
2023/10/06 05:07:50;;;;;;;31.65;11.13;;;14.40;99.90;;;;;;5053501;28;20049;-76
2023/10/06 05:10:21;;;;;;;29.15;10.30;;;14.40;99.90;;;;;;5053260;28;20049;-76
2023/10/06 05:12:47;;;;;;;25.95;10.63;;;14.40;99.90;;;;;;5054435;28;20492;-76
2023/10/06 05:15:23;;;;;;;24.48;10.95;;;14.40;99.90;;;;;;5053278;28;20052;-77
2023/10/06 05:17:55;;;;;;;25.50;10.18;;;14.40;99.90;;;;;;5053186;28;20132;-76
2023/10/06 05:20:29;;;;;;;27.98;10.25;;;14.40;99.90;;;;;;5053309;28;20040;-76
2023/10/06 05:23:09;;;;;;;22.02;10.55;;;14.50;99.90;;;;;;5052827;28;20393;-76
2023/10/06 05:25:36;;;;;;;31.83;11.85;;;14.50;99.90;;;;;;5053331;28;20484;-76
2023/10/06 05:28:02;;;;;;;25.85;10.85;;;14.50;99.90;;;;;;5053012;28;20029;-76
2023/10/06 05:30:29;;;;;;;22.52;11.05;;;14.50;99.90;;;;;;5054236;28;20048;-76
2023/10/06 05:32:59;;;;;;;22.58;10.25;;;14.50;99.90;;;;;;5054160;28;20091;-76
2023/10/06 05:35:30;;;;;;;24.75;10.43;;;14.50;99.90;;;;;;5054109;28;20099;-76
2023/10/06 05:37:58;;;;;;;25.73;10.35;;;14.50;99.90;;;;;;5053182;28;20103;-76
2023/10/06 05:40:29;;;;;;;25.58;10.27;;;14.50;99.90;;;;;;5052446;28;20143;-76
2023/10/06 05:42:55;;;;;;;24.05;10.02;;;14.50;99.90;;;;;;5052924;28;20144;-76
2023/10/06 05:45:21;;;;;;;20.08;9.52;;;14.50;99.90;;;;;;5052169;28;20468;-76
2023/10/06 05:47:51;;;;;;;23.20;9.77;;;14.50;99.90;;;;;;5051630;28;20106;-76
2023/10/06 05:50:21;;;;;;;22.33;10.27;;;14.50;99.90;;;;;;5051640;28;20037;-77
2023/10/06 05:52:51;;;;;;;21.10;8.70;;;14.50;99.90;;;;;;5052569;28;20051;-76
2023/10/06 05:55:22;;;;;;;27.58;9.05;;;14.50;99.90;;;;;;5052215;28;20480;-76
2023/10/06 05:57:55;;;;;;;24.52;8.70;;;14.50;99.90;;;;;;5053554;28;20043;-77
2023/10/06 06:00:29;;;;;;;29.98;8.55;;;14.50;99.90;;;;;;5053826;28;20115;-77
2023/10/06 06:02:58;;;;;;;26.98;8.95;;;14.50;99.90;;;;;;5052485;28;20052;-77
2023/10/06 06:05:25;;;;;;;23.15;8.65;;;14.50;99.90;;;;;;5052412;28;20485;-76
2023/10/06 06:07:51;;;;;;;24.00;7.88;;;14.50;99.90;;;;;;5052051;28;20128;-77
2023/10/06 06:10:18;;;;;;;19.08;7.60;;;14.50;99.90;;;;;;5052199;28;20045;-76
2023/10/06 06:12:44;;;;;;;26.67;7.63;;;14.50;99.90;;;;;;5052044;28;20084;-76
2023/10/06 06:15:16;;;;;;;21.75;8.10;;;14.50;99.90;;;;;;5053243;28;20083;-77
2023/10/06 06:17:42;;;;;;;21.30;7.50;;;14.60;99.90;;;;;;5053360;28;20540;-76
2023/10/06 06:20:09;;;;;;;28.90;8.00;;;14.60;99.90;;;;;;5052266;28;20053;-77
2023/10/06 06:22:38;;;;;;;25.55;8.45;;;14.60;99.90;;;;;;5049897;28;20049;-76
2023/10/06 06:25:10;;;;;;;24.75;8.07;;;14.60;99.90;;;;;;5042176;28;20512;-75
2023/10/06 06:27:38;;;;;;;19.30;7.78;;;14.70;99.90;;;;;;5031945;28;20124;-76
2023/10/06 06:30:05;;;;;;;23.42;7.63;;;14.70;99.90;;;;;;5033123;28;20148;-75
2023/10/06 06:32:31;;;;;;;22.73;8.38;;;14.70;99.90;;;;;;5040455;28;20049;-76
2023/10/06 06:34:56;;;;;;;28.52;8.15;;;14.70;99.90;;;;;;5054614;28;20117;-76
2023/10/06 06:37:23;;;;;;;18.48;7.18;;;14.70;99.90;;;;;;5056092;28;20044;-76
2023/10/06 06:39:49;;;;;;;26.35;8.55;;;14.70;99.90;;;;;;5055723;28;20053;-75
2023/10/06 06:42:15;;;;;;;22.73;9.27;;;14.80;99.90;;;;;;5055683;28;20057;-75
2023/10/06 06:44:47;;;;;;;23.35;8.73;;;14.70;99.90;;;;;;5056730;28;20044;-75
2023/10/06 06:47:17;;;;;;;29.23;9.02;;;14.70;99.90;;;;;;5055470;28;20083;-76
2023/10/06 06:49:48;;;;;;;26.90;9.00;;;14.70;99.90;;;;;;5055564;28;20045;-75
2023/10/06 06:52:15;;;;;;;22.40;8.43;;;14.80;99.90;;;;;;5055552;28;20048;-75
2023/10/06 06:54:46;;;;;;;21.05;9.10;;;14.80;99.90;;;;;;5056733;28;20512;-75
2023/10/06 06:57:15;;;;;;;25.50;8.90;;;14.80;99.90;;;;;;5055565;28;20075;-75
2023/10/06 06:59:42;;;;;;;25.25;8.65;;;14.80;99.90;;;;;;5055749;28;20136;-75
2023/10/06 07:02:09;;;;;;;27.48;8.00;;;14.80;99.90;;;;;;5055590;28;20045;-76
2023/10/06 07:04:35;;;;;;;25.33;9.00;;;14.80;99.90;;;;;;5056655;28;20052;-75
2023/10/06 07:07:01;;;;;;;24.23;8.55;;;14.80;99.90;;;;;;5055395;28;20052;-75
2023/10/06 07:09:27;;;;;;;21.00;8.98;;;14.80;99.90;;;;;;5056346;28;20504;-75
2023/10/06 07:11:56;;;;;;;21.08;8.18;;;14.80;99.90;;;;;;5055171;28;20114;-75
2023/10/06 07:14:21;;;;;;;26.45;9.13;;;14.80;99.90;;;;;;5056444;28;20123;-75
2023/10/06 07:16:47;;;;;;;26.00;8.57;;;14.80;99.90;;;;;;5055166;28;20045;-75
2023/10/06 07:19:14;;;;;;;30.20;8.65;;;14.80;99.90;;;;;;5055364;28;20053;-75
2023/10/06 07:21:41;;;;;;;22.58;8.27;;;14.80;99.90;;;;;;5056201;28;20072;-75
2023/10/06 07:24:10;;;;;;;23.75;7.93;;;14.80;99.90;;;;;;5055247;28;20037;-76
2023/10/06 07:26:40;;;;;;;23.88;8.65;;;14.80;99.90;;;;;;5055165;28;20485;-76
2023/10/06 07:29:06;;;;;;;21.92;8.15;;;14.90;99.90;;;;;;5055940;28;20126;-76
2023/10/06 07:31:32;;;;;;;24.00;8.20;;;14.80;99.90;;;;;;5054809;28;20106;-76
2023/10/06 07:33:58;;;;;;;19.25;8.45;;;14.90;99.90;;;;;;5054873;28;20053;-76
2023/10/06 07:36:24;;;;;;;19.15;7.78;;;14.90;99.90;;;;;;5054658;28;20107;-76
2023/10/06 07:38:52;;;;;;;21.67;8.60;;;14.80;99.90;;;;;;5054841;28;20091;-76
2023/10/06 07:41:25;;;;;;;20.80;8.75;;;14.90;99.90;;;;;;5054807;28;20053;-75
2023/10/06 07:43:55;;;;;;;24.98;8.85;;;14.90;99.90;;;;;;5054975;28;20071;-76
2023/10/06 07:46:22;;;;;;;20.63;7.82;;;14.90;99.90;;;;;;5054779;28;20084;-76
2023/10/06 07:48:51;;;;;;;27.23;8.50;;;14.90;99.90;;;;;;5055918;28;20059;-76
2023/10/06 07:51:17;;;;;;;26.42;8.50;;;14.90;99.90;;;;;;5054443;28;20091;-76
2023/10/06 07:53:45;;;;;;;23.20;8.32;;;14.90;99.90;;;;;;5054776;28;20052;-76
2023/10/06 07:56:11;;;;;;;20.60;8.35;;;14.90;99.90;;;;;;5054415;28;20045;-77
2023/10/06 07:58:38;;;;;;;27.73;9.57;;;14.90;99.90;;;;;;5055928;28;20045;-76
2023/10/06 08:01:08;;;;;;;24.23;8.65;;;14.90;99.90;;;;;;5054502;28;20128;-76
2023/10/06 08:03:38;;;;;;;25.67;9.38;;;14.90;99.90;;;;;;5054286;28;20056;-75
2023/10/06 08:06:05;;;;;;;23.52;9.45;;;15.00;99.90;;;;;;5054222;28;20496;-76
2023/10/06 08:08:33;;;;;;;22.33;9.18;;;15.10;99.90;;;;;;5054154;28;20068;-77
2023/10/06 08:11:02;;;;;;;25.15;8.80;;;15.00;99.90;;;;;;5054102;28;20484;-77
2023/10/06 08:13:34;;;;;;;29.40;8.68;;;15.00;99.90;;;;;;5053949;28;20048;-76
2023/10/06 08:16:01;;;;;;;28.33;9.27;;;15.00;99.90;;;;;;5053938;28;20101;-77
2023/10/06 08:18:29;;;;;;;27.92;9.73;;;15.10;99.90;;;;;;5054032;28;20049;-76
2023/10/06 08:21:00;;;;;;;22.27;8.63;;;15.10;99.90;;;;;;5054249;28;20052;-76
2023/10/06 08:23:27;;;;;;;34.75;9.10;;;15.10;99.90;;;;;;5053838;28;20052;-76
2023/10/06 08:25:56;;;;;;;25.83;8.80;;;15.20;99.90;;;;;;5054180;28;20072;-76
2023/10/06 08:28:26;;;;;;;27.27;9.13;;;15.20;99.90;;;;;;5053623;28;20075;-76
2023/10/06 08:30:52;;;;;;;26.27;8.98;;;15.20;99.90;;;;;;5053759;28;20148;-75
2023/10/06 08:33:18;;;;;;;28.65;8.57;;;15.30;99.90;;;;;;5054772;28;20064;-75
2023/10/06 08:35:44;;;;;;;23.00;9.02;;;15.30;99.90;;;;;;5052882;28;20505;-76
2023/10/06 08:38:10;;;;;;;30.08;9.50;;;15.30;99.90;;;;;;5053510;28;20044;-76
2023/10/06 08:40:44;;;;;;;28.10;9.68;;;15.30;99.90;;;;;;5053128;28;20057;-75
2023/10/06 08:43:19;;;;;;;30.55;11.15;;;15.40;99.90;;;;;;5053892;28;20408;-75
2023/10/06 08:45:44;;;;;;;29.13;9.23;;;15.40;99.90;;;;;;5053421;28;20064;-75
2023/10/06 08:48:13;;;;;;;21.20;8.43;;;15.50;99.90;;;;;;5054830;28;20045;-75
2023/10/06 08:50:44;;;;;;;21.38;8.70;;;15.60;99.90;;;;;;5054868;28;20051;-75
2023/10/06 08:53:10;;;;;;;25.33;8.55;;;15.60;99.90;;;;;;5053047;28;20045;-75
2023/10/06 08:55:44;;;;;;;25.05;8.30;;;15.70;99.90;;;;;;5053510;28;20051;-75
2023/10/06 08:58:14;;;;;;;27.98;9.10;;;15.70;99.90;;;;;;5052817;28;20045;-75
2023/10/06 09:00:43;;;;;;;28.05;7.57;;;15.80;99.90;;;;;;5053151;28;20401;-75
2023/10/06 09:03:11;;;;;;;25.60;7.43;;;15.80;99.90;;;;;;5053088;28;20052;-75
2023/10/06 09:05:44;;;;;;;19.67;7.93;;;15.80;99.90;;;;;;5053109;28;20041;-75
2023/10/06 09:08:12;;;;;;;25.10;7.82;;;15.90;99.90;;;;;;5053307;28;20099;-75
2023/10/06 09:10:48;;;;;;;22.15;7.53;;;15.90;99.90;;;;;;5054557;28;20049;-76
2023/10/06 09:13:16;;;;;;;26.85;8.10;;;15.90;99.90;;;;;;5052778;28;20049;-74
2023/10/06 09:16:08;;;;;;;27.83;9.05;;;16.00;99.90;;;;;;5054069;28;20045;-75
2023/10/06 09:18:38;;;;;;;19.55;7.35;;;16.00;99.90;;;;;;5054012;28;20041;-75
2023/10/06 09:21:13;;;;;;;25.00;8.10;;;16.10;99.90;;;;;;5054105;28;20053;-75
2023/10/06 09:23:40;;;;;;;27.25;8.45;;;16.20;99.90;;;;;;5052254;28;20554;-75
2023/10/06 09:26:07;;;;;;;27.10;7.88;;;16.30;99.90;;;;;;5052951;28;20183;-76
2023/10/06 09:28:33;;;;;;;31.48;8.20;;;16.30;99.90;;;;;;5054034;28;20052;-75
2023/10/06 09:31:01;;;;;;;17.10;8.05;;;16.40;99.90;;;;;;5053764;28;20477;-75
2023/10/06 09:33:36;;;;;;;23.17;8.10;;;16.40;99.90;;;;;;5052321;28;20056;-75
2023/10/06 09:36:07;;;;;;;23.55;6.75;;;16.50;99.90;;;;;;5054009;28;20041;-75
2023/10/06 09:38:34;;;;;;;29.15;7.20;;;16.50;99.90;;;;;;5053397;28;20033;-75
2023/10/06 09:41:00;;;;;;;22.13;7.28;;;16.60;99.90;;;;;;5053907;28;20072;-76
2023/10/06 09:43:29;;;;;;;29.08;6.72;;;16.70;99.90;;;;;;5052419;28;20129;-74
2023/10/06 09:45:56;;;;;;;21.80;5.78;;;16.60;99.90;;;;;;5052159;28;20179;-75
2023/10/06 09:48:33;;;;;;;21.48;5.63;;;16.80;99.90;;;;;;5053910;28;20041;-76
2023/10/06 09:51:01;;;;;;;25.23;6.22;;;16.90;99.90;;;;;;5052266;28;20060;-75
2023/10/06 09:53:28;;;;;;;21.25;5.68;;;16.90;99.90;;;;;;5052032;28;20130;-75
2023/10/06 09:55:54;;;;;;;20.83;5.25;;;17.00;99.90;;;;;;5052002;28;20128;-75
2023/10/06 09:58:22;;;;;;;21.55;5.80;;;17.10;99.90;;;;;;5052317;28;20455;-75
2023/10/06 10:00:49;;;;;;;21.23;5.28;;;17.20;99.90;;;;;;5052137;28;20401;-75
2023/10/06 10:03:16;;;;;;;20.38;5.53;;;17.30;99.90;;;;;;5051997;28;20049;-75
2023/10/06 10:05:45;;;;;;;14.23;4.25;;;17.50;99.90;;;;;;5051860;28;20055;-74
2023/10/06 10:08:13;;;;;;;22.42;5.00;;;17.50;99.90;;;;;;5051159;28;20049;-74
2023/10/06 10:10:44;;;;;;;18.98;4.97;;;17.60;99.90;;;;;;5052307;28;20040;-75
2023/10/06 10:14:02;;;;;;;17.55;4.40;;;17.60;99.90;;;;;;5051720;28;20083;-75
2023/10/06 10:16:52;;;;;;;16.90;4.65;;;17.70;99.90;;;;;;4998879;28;20075;-75
2023/10/06 10:19:22;;;;;;;18.33;4.53;;;17.80;99.90;;;;;;5052156;28;20056;-75
2023/10/06 10:21:48;;;;;;;24.73;4.60;;;17.80;99.90;;;;;;5052821;28;20573;-75
2023/10/06 10:24:19;;;;;;;18.40;4.90;;;17.80;99.90;;;;;;5051992;28;20056;-74
2023/10/06 10:26:52;;;;;;;18.60;4.53;;;17.80;99.90;;;;;;5052115;28;20091;-75
2023/10/06 10:29:18;;;;;;;17.15;4.30;;;17.90;99.90;;;;;;5052954;28;20044;-75
2023/10/06 10:31:46;;;;;;;24.40;5.18;;;17.90;99.90;;;;;;5051943;28;20373;-74
2023/10/06 10:34:20;;;;;;;16.95;4.38;;;17.90;99.90;;;;;;5053010;28;20080;-75
2023/10/06 10:36:51;;;;;;;17.85;4.32;;;18.00;99.90;;;;;;5051748;28;20428;-75
2023/10/06 10:39:20;;;;;;;20.33;4.47;;;18.00;99.90;;;;;;5051472;28;20072;-75
2023/10/06 10:41:47;;;;;;;19.60;4.22;;;18.00;99.90;;;;;;5051630;28;20144;-75
2023/10/06 10:44:14;;;;;;;27.30;5.22;;;18.00;99.90;;;;;;5051880;28;20480;-75
2023/10/06 10:46:52;;;;;;;23.50;3.95;;;18.00;99.90;;;;;;5052951;28;20045;-75
2023/10/06 10:49:20;;;;;;;21.33;3.80;;;18.10;99.90;;;;;;5052845;28;20049;-74
2023/10/06 10:51:55;;;;;;;17.23;5.18;;;18.20;99.90;;;;;;5051673;28;20217;-74
2023/10/06 10:54:27;;;;;;;18.35;4.45;;;18.20;99.90;;;;;;5051585;28;20051;-75
2023/10/06 10:57:01;;;;;;;19.13;4.05;;;18.40;99.90;;;;;;5051579;28;20059;-75
2023/10/06 11:02:49;;;;;;;20.98;4.97;;;18.60;99.90;;;;;;5051530;28;20056;-75
2023/10/06 11:05:20;;;;;;;22.75;4.05;;;18.80;99.90;;;;;;5051341;28;20045;-75
2023/10/06 11:08:15;;;;;;;14.82;4.35;;;18.80;99.90;;;;;;5051252;28;20049;-76
2023/10/06 11:10:41;;;;;;;21.38;4.70;;;18.90;99.90;;;;;;5030444;28;20049;-75
2023/10/06 11:13:19;;;;;;;26.10;5.65;;;18.90;99.90;;;;;;5051416;28;20049;-75
2023/10/06 11:15:46;;;;;;;20.30;5.15;;;18.90;99.90;;;;;;5051227;28;20564;-75
2023/10/06 11:18:13;;;;;;;19.98;4.15;;;18.90;99.90;;;;;;5051318;28;20128;-75
2023/10/06 11:20:42;;;;;;;18.90;5.15;;;18.90;99.90;;;;;;5053733;28;20053;-76
2023/10/06 11:23:08;;;;;;;16.13;4.38;;;18.90;99.90;;;;;;5055234;28;20052;-76
2023/10/06 11:25:38;;;;;;;21.35;3.92;;;18.90;99.90;;;;;;5056513;28;20044;-75
2023/10/06 11:28:08;;;;;;;20.63;4.22;;;18.80;99.90;;;;;;5056010;28;20041;-75
2023/10/06 11:30:38;;;;;;;17.92;3.55;;;18.80;99.90;;;;;;5055080;28;20044;-75
2023/10/06 11:33:06;;;;;;;19.65;4.13;;;18.70;99.90;;;;;;5054820;28;20527;-76
2023/10/06 11:35:37;;;;;;;15.77;4.05;;;18.60;99.90;;;;;;5056314;28;20041;-75
2023/10/06 11:38:07;;;;;;;19.85;4.22;;;18.70;99.90;;;;;;5054849;28;20044;-75
2023/10/06 11:40:35;;;;;;;20.65;4.57;;;18.80;99.90;;;;;;5055778;28;20056;-75
2023/10/06 11:43:14;;;;;;;17.30;4.32;;;18.90;99.90;;;;;;5055815;28;20076;-75
2023/10/06 11:45:43;;;;;;;16.58;4.25;;;18.90;99.90;;;;;;5054648;28;20075;-75
2023/10/06 11:48:35;;;;;;;20.17;4.63;;;18.90;99.90;;;;;;5056025;28;20041;-75
2023/10/06 11:51:12;;;;;;;14.30;4.22;;;18.90;99.90;;;;;;5055765;28;20484;-75
2023/10/06 11:53:40;;;;;;;20.10;4.07;;;18.90;99.90;;;;;;5054071;28;20049;-75
2023/10/06 11:56:10;;;;;;;17.15;4.10;;;18.90;99.90;;;;;;5054658;28;20049;-76
2023/10/06 11:58:37;;;;;;;19.58;4.38;;;18.90;99.90;;;;;;5055904;28;20049;-76
2023/10/06 12:01:03;;;;;;;15.98;3.63;;;18.90;99.90;;;;;;5055472;28;20489;-75
2023/10/06 12:03:36;;;;;;;21.80;4.00;;;18.90;99.90;;;;;;5054457;28;20045;-75
2023/10/06 12:06:02;;;;;;;17.67;3.55;;;18.90;99.90;;;;;;5054198;28;20049;-75
2023/10/06 12:08:27;;;;;;;16.58;4.18;;;18.90;99.90;;;;;;5054011;28;20052;-75
2023/10/06 12:10:53;;;;;;;16.80;4.22;;;18.90;99.90;;;;;;5055594;28;20037;-75
2023/10/06 12:13:19;;;;;;;15.27;3.78;;;18.90;99.90;;;;;;5055051;28;20388;-78
2023/10/06 12:15:46;;;;;;;18.60;3.88;;;18.90;99.90;;;;;;5054269;28;20053;-75
2023/10/06 12:18:15;;;;;;;20.67;4.03;;;18.90;99.90;;;;;;5054281;28;20114;-76
2023/10/06 12:20:42;;;;;;;22.48;4.22;;;18.90;99.90;;;;;;5055140;28;20048;-75
2023/10/06 12:23:08;;;;;;;14.63;4.15;;;18.90;99.90;;;;;;5054157;28;20049;-75
2023/10/06 12:25:36;;;;;;;25.10;3.95;;;18.80;99.90;;;;;;5055232;28;20082;-77
2023/10/06 12:28:02;;;;;;;17.98;3.88;;;18.80;99.90;;;;;;5054088;28;20060;-76
2023/10/06 12:30:28;;;;;;;15.05;3.60;;;18.80;99.90;;;;;;5055116;28;20036;-76
2023/10/06 12:32:54;;;;;;;21.98;4.75;;;18.70;99.90;;;;;;5052599;28;20053;-76
2023/10/06 12:35:21;;;;;;;20.05;5.25;;;18.70;99.90;;;;;;5053978;28;20049;-75
2023/10/06 12:37:48;;;;;;;16.45;4.03;;;18.60;99.90;;;;;;5053968;28;20055;-76
2023/10/06 12:40:15;;;;;;;12.88;3.60;;;18.60;99.90;;;;;;5053325;28;20187;-75
2023/10/06 12:42:44;;;;;;;16.88;3.72;;;18.50;99.90;;;;;;5053196;28;20076;-76
2023/10/06 12:45:17;;;;;;;15.98;3.80;;;18.50;99.90;;;;;;5054740;28;20123;-76
2023/10/06 12:47:47;;;;;;;20.98;4.50;;;18.40;99.90;;;;;;5053763;28;20080;-77
2023/10/06 12:50:18;;;;;;;15.80;3.67;;;18.40;99.90;;;;;;5053738;28;20045;-77
2023/10/06 12:52:49;;;;;;;20.80;4.38;;;18.40;99.90;;;;;;5054628;28;20080;-77
2023/10/06 12:55:15;;;;;;;19.60;4.07;;;18.40;99.90;;;;;;5053482;28;20161;-77
2023/10/06 12:57:41;;;;;;;22.55;4.40;;;18.40;99.90;;;;;;5054645;28;20045;-78
2023/10/06 13:00:09;;;;;;;21.27;4.40;;;18.40;99.90;;;;;;5054745;28;20123;-78